CDT,Max TemperatureF,Mean TemperatureF,Min TemperatureF,Max Dew PointF,MeanDew PointF,Min DewpointF,Max Humidity, Mean Humidity, Min Humidity, Max Sea Level PressureIn, Mean Sea Level PressureIn, Min Sea Level PressureIn, Max VisibilityMiles, Mean VisibilityMiles, Min VisibilityMiles, Max Wind SpeedMPH, Mean Wind SpeedMPH, Max Gust SpeedMPH,PrecipitationIn, CloudCover, Events, WindDirDegrees
2013-6-1,79,72,66,72,65,63,94,88,76,29.95,29.88,29.79,10,7,1,22,9,33,3.11,7,Rain-Thunderstorm,167
2013-6-2,77,68,62,65,60,57,90,72,57,30.00,29.95,29.91,10,10,10,12,6,,0.00,5,,320
2013-6-3,77,68,60,60,57,54,87,69,46,30.07,30.00,29.96,10,10,10,8,4,,0.00,2,,25
2013-6-4,82,70,59,64,59,55,87,69,47,30.05,30.00,29.95,10,10,9,7,4,,0.00,1,,61
2013-6-5,86,74,64,68,64,61,90,72,49,29.96,29.88,29.79,10,9,2,15,3,25,0.34,4,Rain-Thunderstorm,36
2013-6-6,82,74,66,65,63,61,90,70,51,29.84,29.81,29.78,10,9,6,14,5,17,0.00,5,,333
2013-6-7,81,72,64,60,58,55,81,63,44,29.91,29.86,29.82,10,10,10,14,8,22,0.00,4,,340
2013-6-8,82,70,57,65,58,55,90,67,45,29.98,29.93,29.89,10,10,10,8,2,,0.00,3,,192
2013-6-9,80,72,64,70,65,59,93,80,68,29.95,29.88,29.81,10,8,0,13,3,16,0.84,4,Rain-Thunderstorm,165
2013-6-10,89,76,64,70,64,59,94,80,37,29.90,29.85,29.83,10,6,0,14,3,20,0.05,4,Fog-Rain,256
2013-6-11,96,82,68,74,70,64,90,67,47,29.98,29.93,29.89,10,10,10,12,3,,0.00,0,,219
2013-6-12,93,84,75,73,71,69,85,63,44,29.97,29.90,29.82,10,10,10,20,9,30,0.00,0,,222
2013-6-13,86,78,71,71,68,65,84,65,54,29.96,29.90,29.82,10,10,9,20,10,24,0.00,2,,307
2013-6-14,88,76,66,67,61,56,90,63,35,30.05,30.00,29.95,10,10,7,13,2,,0.00,0,,48
2013-6-15,89,76,64,71,66,62,91,70,43,30.07,30.00,29.95,10,9,7,15,2,,0.00,0,,228
2013-6-16,89,80,73,73,70,67,91,74,49,29.99,29.95,29.91,10,9,6,10,2,,0.00,1,Rain,239
2013-6-17,87,78,69,73,69,65,90,80,58,29.93,29.89,29.86,10,8,2,15,5,22,0.39,5,Rain-Thunderstorm,177
2013-6-18,89,76,64,71,65,62,90,72,46,29.98,29.93,29.88,10,10,10,8,5,,0.00,2,Rain,337
2013-6-19,91,80,68,72,67,63,90,66,40,30.03,29.99,29.95,10,10,10,8,2,,0.00,1,,358
2013-6-20,91,81,71,72,68,64,87,66,41,30.11,30.06,30.03,10,10,7,9,2,,0.00,0,,206
2013-6-21,93,81,71,71,69,66,91,66,42,30.13,30.08,30.04,10,8,2,13,4,18,0.00,0,,194
2013-6-22,93,82,71,72,68,64,88,68,38,30.11,30.06,29.99,10,8,2,23,8,31,0.21,2,Rain-Thunderstorm,160
2013-6-23,93,80,70,71,68,63,90,67,40,30.07,30.02,29.95,10,9,5,12,5,18,0.00,0,,183
2013-6-24,93,82,72,71,69,64,91,62,44,30.09,30.02,29.97,10,9,4,14,5,,0.00,0,,194
2013-6-25,95,84,75,73,71,69,85,63,46,30.00,29.94,29.84,10,10,8,16,9,22,0.00,0,,195
2013-6-26,95,86,78,75,72,68,79,67,52,29.90,29.84,29.76,10,10,7,20,10,28,0.00,2,Rain-Thunderstorm,208
2013-6-27,100,88,77,75,70,65,88,59,32,29.87,29.84,29.79,10,10,9,13,6,18,0.00,0,,292
2013-6-28,93,83,73,73,68,60,88,68,37,29.89,29.78,29.70,10,9,2,16,5,30,0.35,2,Rain-Thunderstorm,302
2013-6-29,89,78,66,63,60,55,87,60,34,29.74,29.71,29.66,10,10,3,23,9,31,0.08,2,Rain-Thunderstorm,308
2013-6-30,82,72,64,64,63,61,90,77,52,29.86,29.79,29.72,10,10,9,17,8,24,0.01,4,Rain,333